Time;durP1;ratioP1;P1;durP2;ratioP2;P2;SDS_P1;SDS_P2;PMS_P1;PMS_P2;Temp;Humidity;BMP_temperature;BMP_pressure;BME280_temperature;BME280_humidity;BME280_pressure;Samples;Min_cycle;Max_cycle;Signal;HPM_P1;HPM_P2
2021/09/03 00:01:29;;;;;;;17.67;15.50;;;;;;;;;;5032158;28;20527;-64
2021/09/03 00:03:57;;;;;;;17.87;14.33;;;;;;;;;;5032583;28;20441;-65
2021/09/03 00:06:25;;;;;;;21.30;15.83;;;;;;;;;;5034704;28;20441;-65
2021/09/03 00:08:52;;;;;;;21.70;14.67;;;;;;;;;;5035920;28;20479;-65
2021/09/03 00:11:19;;;;;;;20.27;14.17;;;;;;;;;;5036068;28;20523;-64
2021/09/03 00:13:46;;;;;;;16.50;14.80;;;;;;;;;;5036570;28;20448;-65
2021/09/03 00:16:14;;;;;;;16.37;14.73;;;;;;;;;;5037305;28;20840;-65
2021/09/03 00:18:41;;;;;;;17.93;14.40;;;;;;;;;;5036518;28;20445;-65
2021/09/03 00:21:09;;;;;;;21.37;14.27;;;;;;;;;;5036460;28;20518;-64
2021/09/03 00:23:37;;;;;;;24.10;16.40;;;;;;;;;;5036219;28;20535;-65
2021/09/03 00:26:04;;;;;;;20.07;15.30;;;;;;;;;;5035839;28;20441;-65
2021/09/03 00:28:32;;;;;;;20.10;15.60;;;;;;;;;;5035456;28;21002;-64
2021/09/03 00:30:59;;;;;;;22.57;16.00;;;;;;;;;;5035706;28;20465;-64
2021/09/03 00:33:26;;;;;;;20.20;14.53;;;;;;;;;;5035318;28;20450;-64
2021/09/03 00:35:53;;;;;;;24.90;15.47;;;;;;;;;;5035577;28;20441;-65
2021/09/03 00:38:22;;;;;;;18.67;15.70;;;;;;;;;;5035799;28;20449;-66
2021/09/03 00:40:49;;;;;;;19.27;14.40;;;;;;;;;;5035473;28;20538;-65
2021/09/03 00:43:16;;;;;;;21.83;14.90;;;;;;;;;;5035534;28;20512;-65
2021/09/03 00:45:44;;;;;;;15.33;13.67;;;;;;;;;;5035148;28;20453;-65
2021/09/03 00:48:11;;;;;;;19.40;15.53;;;;;;;;;;5035510;28;20476;-65
2021/09/03 00:50:38;;;;;;;17.40;14.70;;;;;;;;;;5035024;28;20530;-65
2021/09/03 00:53:05;;;;;;;18.63;16.33;;;;;;;;;;5034963;28;20861;-66
2021/09/03 00:55:34;;;;;;;24.27;16.33;;;;;;;;;;5034979;28;20449;-65
2021/09/03 00:58:01;;;;;;;17.37;15.13;;;;;;;;;;5035205;28;20518;-64
2021/09/03 01:00:29;;;;;;;19.53;15.40;;;;;;;;;;5034783;28;20892;-64
2021/09/03 01:02:56;;;;;;;20.43;15.33;;;;;;;;;;5034708;28;20477;-64
2021/09/03 01:05:23;;;;;;;25.77;16.67;;;;;;;;;;5034999;28;20504;-64
2021/09/03 01:07:51;;;;;;;22.33;15.77;;;;;;;;;;5035034;28;20496;-65
2021/09/03 01:10:19;;;;;;;21.90;15.93;;;;;;;;;;5034924;28;20507;-65
2021/09/03 01:12:48;;;;;;;19.13;15.67;;;;;;;;;;5035118;28;20870;-65
2021/09/03 01:15:16;;;;;;;21.37;15.57;;;;;;;;;;5035154;28;20507;-64
2021/09/03 01:17:43;;;;;;;19.17;16.03;;;;;;;;;;5035063;28;20475;-64
2021/09/03 01:20:11;;;;;;;19.97;15.97;;;;;;;;;;5034676;28;20441;-64
2021/09/03 01:22:40;;;;;;;19.07;15.77;;;;;;;;;;5034817;28;20535;-64
2021/09/03 01:25:08;;;;;;;20.53;16.17;;;;;;;;;;5034929;28;20444;-64
2021/09/03 01:27:35;;;;;;;19.40;15.80;;;;;;;;;;5034851;28;20441;-64
2021/09/03 01:30:02;;;;;;;20.57;16.47;;;;;;;;;;5034839;28;20456;-65
2021/09/03 01:32:30;;;;;;;24.63;15.73;;;;;;;;;;5034247;28;20465;-65
2021/09/03 01:34:57;;;;;;;19.80;16.23;;;;;;;;;;5034725;28;20444;-65
2021/09/03 01:37:24;;;;;;;23.27;16.67;;;;;;;;;;5034822;28;20849;-65
2021/09/03 01:39:53;;;;;;;22.20;16.50;;;;;;;;;;5034134;28;20511;-64
2021/09/03 01:42:20;;;;;;;19.50;16.20;;;;;;;;;;5035166;28;20907;-65
2021/09/03 01:44:47;;;;;;;20.67;16.63;;;;;;;;;;5034023;28;20515;-65
2021/09/03 01:47:14;;;;;;;19.50;17.50;;;;;;;;;;5034303;28;20449;-65
2021/09/03 01:49:42;;;;;;;18.47;15.43;;;;;;;;;;5034246;28;20449;-65
2021/09/03 01:52:09;;;;;;;22.23;16.87;;;;;;;;;;5033879;28;20468;-65
2021/09/03 01:54:36;;;;;;;20.37;17.07;;;;;;;;;;5034161;28;20445;-65
2021/09/03 01:57:05;;;;;;;25.37;17.30;;;;;;;;;;5034042;28;20465;-65
2021/09/03 01:59:32;;;;;;;22.40;17.80;;;;;;;;;;5034078;28;20449;-64
2021/09/03 02:01:59;;;;;;;20.77;15.87;;;;;;;;;;5033485;28;20525;-65
2021/09/03 02:04:27;;;;;;;25.93;16.87;;;;;;;;;;5034120;28;20494;-65
2021/09/03 02:06:54;;;;;;;28.27;18.40;;;;;;;;;;5034438;28;20449;-65
2021/09/03 02:09:21;;;;;;;27.13;18.30;;;;;;;;;;5033848;28;20445;-64
2021/09/03 02:11:49;;;;;;;23.87;17.37;;;;;;;;;;5033841;28;20465;-64
2021/09/03 02:14:17;;;;;;;24.27;18.40;;;;;;;;;;5033894;28;20477;-65
2021/09/03 02:16:45;;;;;;;23.27;18.07;;;;;;;;;;5033817;28;20449;-65
2021/09/03 02:19:12;;;;;;;29.67;19.20;;;;;;;;;;5033744;28;20448;-65
2021/09/03 02:21:41;;;;;;;22.40;17.83;;;;;;;;;;5033816;28;20523;-65
2021/09/03 02:24:08;;;;;;;25.17;18.87;;;;;;;;;;5033987;28;20531;-65
2021/09/03 02:26:35;;;;;;;21.13;17.57;;;;;;;;;;5033932;28;20453;-65
2021/09/03 02:29:03;;;;;;;23.40;18.50;;;;;;;;;;5033727;28;20444;-65
2021/09/03 02:31:31;;;;;;;28.80;19.80;;;;;;;;;;5033860;28;20530;-65
2021/09/03 02:33:59;;;;;;;22.30;18.17;;;;;;;;;;5033619;28;20441;-65
2021/09/03 02:36:26;;;;;;;23.37;18.30;;;;;;;;;;5033997;28;20498;-65
2021/09/03 02:38:53;;;;;;;24.30;17.97;;;;;;;;;;5033489;28;20998;-66
2021/09/03 02:41:20;;;;;;;26.77;17.67;;;;;;;;;;5033497;28;20481;-67
2021/09/03 02:43:47;;;;;;;20.33;16.80;;;;;;;;;;5033869;28;20539;-65
2021/09/03 02:46:15;;;;;;;20.70;16.20;;;;;;;;;;5033468;28;20933;-65
2021/09/03 02:48:43;;;;;;;23.13;16.50;;;;;;;;;;5033623;28;20449;-65
2021/09/03 02:51:10;;;;;;;22.40;17.57;;;;;;;;;;5033490;28;20895;-65
2021/09/03 02:53:38;;;;;;;21.27;16.50;;;;;;;;;;5033715;28;20487;-65
2021/09/03 02:56:05;;;;;;;24.63;18.17;;;;;;;;;;5033113;28;20507;-65
2021/09/03 02:58:32;;;;;;;21.27;17.40;;;;;;;;;;5032908;28;20932;-65
2021/09/03 03:01:00;;;;;;;23.70;17.90;;;;;;;;;;5032716;28;20511;-65
2021/09/03 03:03:27;;;;;;;25.60;18.70;;;;;;;;;;5033181;28;20476;-65
2021/09/03 03:05:56;;;;;;;23.80;17.77;;;;;;;;;;5033901;28;20449;-65
2021/09/03 03:08:23;;;;;;;22.87;18.30;;;;;;;;;;5034106;28;20445;-65
2021/09/03 03:10:50;;;;;;;26.23;19.20;;;;;;;;;;5033034;28;20868;-65
2021/09/03 03:13:22;;;;;;;23.97;18.93;;;;;;;;;;5032675;28;20929;-65
2021/09/03 03:15:49;;;;;;;26.60;19.43;;;;;;;;;;5033048;28;20437;-65
2021/09/03 03:18:16;;;;;;;24.37;18.17;;;;;;;;;;5033001;28;20852;-65
2021/09/03 03:20:44;;;;;;;25.33;19.57;;;;;;;;;;5032926;28;20496;-65
2021/09/03 03:23:13;;;;;;;27.63;19.47;;;;;;;;;;5032788;28;20527;-65
2021/09/03 03:25:40;;;;;;;28.17;19.70;;;;;;;;;;5032691;28;20940;-65
2021/09/03 03:28:08;;;;;;;31.77;20.97;;;;;;;;;;5032574;28;21002;-65
2021/09/03 03:30:35;;;;;;;34.63;23.30;;;;;;;;;;5032746;28;20520;-65
2021/09/03 03:33:02;;;;;;;32.50;21.63;;;;;;;;;;5032876;28;20449;-65
2021/09/03 03:35:29;;;;;;;31.20;19.97;;;;;;;;;;5032524;28;20453;-65
2021/09/03 03:37:57;;;;;;;26.50;20.10;;;;;;;;;;5032860;28;20445;-65
2021/09/03 03:40:25;;;;;;;25.43;19.23;;;;;;;;;;5033336;28;20868;-65
2021/09/03 03:42:53;;;;;;;26.90;21.87;;;;;;;;;;5036722;28;20519;-63
2021/09/03 03:45:20;;;;;;;27.00;20.47;;;;;;;;;;5036650;28;20849;-65
2021/09/03 03:47:47;;;;;;;29.30;20.23;;;;;;;;;;5036248;28;20444;-65
2021/09/03 03:50:14;;;;;;;28.40;21.30;;;;;;;;;;5036413;28;20502;-65
2021/09/03 03:52:42;;;;;;;27.00;19.63;;;;;;;;;;5036288;28;20929;-65
2021/09/03 03:55:10;;;;;;;28.60;20.83;;;;;;;;;;5036192;28;21011;-65
2021/09/03 03:57:38;;;;;;;28.33;20.43;;;;;;;;;;5036408;28;20526;-65
2021/09/03 04:00:06;;;;;;;27.80;19.40;;;;;;;;;;5036300;28;20503;-65
2021/09/03 04:02:34;;;;;;;30.63;20.80;;;;;;;;;;5036119;28;20464;-65
2021/09/03 04:08:32;;;;;;;25.13;17.60;;;;;;;;;;5091470;27;20614;-64
2021/09/03 04:10:59;;;;;;;23.33;18.33;;;;;;;;;;5091514;28;20879;-66
2021/09/03 04:13:26;;;;;;;23.17;18.23;;;;;;;;;;5091434;28;20446;-64
2021/09/03 04:15:54;;;;;;;27.87;19.13;;;;;;;;;;5091388;28;20442;-65
2021/09/03 04:18:21;;;;;;;25.30;18.77;;;;;;;;;;5091713;28;20503;-65
2021/09/03 04:20:48;;;;;;;24.57;19.30;;;;;;;;;;5091566;28;20467;-64
2021/09/03 04:23:15;;;;;;;22.33;18.80;;;;;;;;;;5090969;28;20850;-65
2021/09/03 04:25:44;;;;;;;23.30;19.20;;;;;;;;;;5090800;28;20454;-65
2021/09/03 04:28:11;;;;;;;24.67;18.70;;;;;;;;;;5091080;28;20477;-64
2021/09/03 04:30:38;;;;;;;24.90;18.73;;;;;;;;;;5091084;28;20463;-66
2021/09/03 04:33:06;;;;;;;22.83;18.20;;;;;;;;;;5091345;28;20453;-65
2021/09/03 04:35:33;;;;;;;26.20;20.50;;;;;;;;;;5090884;28;20516;-64
2021/09/03 04:38:00;;;;;;;23.83;18.13;;;;;;;;;;5091350;28;20512;-65
2021/09/03 04:40:27;;;;;;;23.70;19.93;;;;;;;;;;5091373;28;20473;-66
2021/09/03 04:42:56;;;;;;;24.80;19.23;;;;;;;;;;5091290;28;20446;-65
2021/09/03 04:45:23;;;;;;;22.93;17.90;;;;;;;;;;5091192;28;20438;-65
2021/09/03 04:47:51;;;;;;;23.07;17.83;;;;;;;;;;5090866;28;20881;-66
2021/09/03 04:50:18;;;;;;;24.10;17.90;;;;;;;;;;5090289;28;20934;-65
2021/09/03 04:52:45;;;;;;;28.67;18.63;;;;;;;;;;5090252;28;20450;-65
2021/09/03 04:55:12;;;;;;;22.33;18.97;;;;;;;;;;5090399;28;20442;-66
2021/09/03 04:57:40;;;;;;;24.20;18.87;;;;;;;;;;5090679;28;20445;-63
2021/09/03 05:00:10;;;;;;;22.33;18.47;;;;;;;;;;5090298;28;20446;-64
2021/09/03 05:02:37;;;;;;;23.23;18.67;;;;;;;;;;5090499;28;20915;-66
2021/09/03 05:05:05;;;;;;;20.80;18.43;;;;;;;;;;5090237;28;20447;-66
2021/09/03 05:07:32;;;;;;;20.67;17.20;;;;;;;;;;5089721;28;20478;-66
2021/09/03 05:10:00;;;;;;;22.60;17.63;;;;;;;;;;5090538;28;20496;-64
2021/09/03 05:12:27;;;;;;;21.50;17.80;;;;;;;;;;5089642;28;20466;-65
2021/09/03 05:14:54;;;;;;;22.53;17.97;;;;;;;;;;5089852;28;20495;-66
2021/09/03 05:17:23;;;;;;;23.47;17.70;;;;;;;;;;5089729;28;20508;-64
2021/09/03 05:19:51;;;;;;;18.47;15.43;;;;;;;;;;5076643;28;20866;-65
2021/09/03 05:22:18;;;;;;;18.60;15.33;;;;;;;;;;5075848;28;20970;-66
2021/09/03 05:24:45;;;;;;;19.53;15.67;;;;;;;;;;5075908;28;20473;-65
2021/09/03 05:27:12;;;;;;;21.47;16.53;;;;;;;;;;5075867;28;20881;-64
2021/09/03 05:29:40;;;;;;;15.80;14.10;;;;;;;;;;5076291;28;20443;-65
2021/09/03 05:32:07;;;;;;;18.37;14.57;;;;;;;;;;5076494;28;20467;-66
2021/09/03 05:34:36;;;;;;;17.37;15.67;;;;;;;;;;5076322;28;20850;-65
2021/09/03 05:37:03;;;;;;;19.73;15.83;;;;;;;;;;5076302;28;20627;-65
2021/09/03 05:39:30;;;;;;;18.73;15.80;;;;;;;;;;5075740;28;20854;-64
2021/09/03 05:41:58;;;;;;;18.27;14.23;;;;;;;;;;5075838;28;20467;-64
2021/09/03 05:44:25;;;;;;;20.10;15.10;;;;;;;;;;5075919;28;20492;-68
2021/09/03 05:46:52;;;;;;;17.90;14.00;;;;;;;;;;5077149;28;20500;-66
2021/09/03 05:49:20;;;;;;;17.30;13.37;;;;;;;;;;5076624;28;20459;-66
2021/09/03 05:51:48;;;;;;;16.37;14.30;;;;;;;;;;5076485;28;20467;-66
2021/09/03 05:54:15;;;;;;;15.50;13.97;;;;;;;;;;5076099;28;20855;-66
2021/09/03 05:56:43;;;;;;;18.03;15.00;;;;;;;;;;5076270;28;20443;-65
2021/09/03 05:59:10;;;;;;;17.53;14.97;;;;;;;;;;5086068;28;20473;-64
2021/09/03 06:01:37;;;;;;;19.83;15.23;;;;;;;;;;5083404;28;20490;-66
2021/09/03 06:04:04;;;;;;;15.90;14.20;;;;;;;;;;5092452;28;20938;-65
2021/09/03 06:06:32;;;;;;;19.03;15.43;;;;;;;;;;5092896;28;20451;-66
2021/09/03 06:09:00;;;;;;;19.23;15.33;;;;;;;;;;5086301;28;20501;-65
2021/09/03 06:11:28;;;;;;;21.90;16.80;;;;;;;;;;5077438;28;20463;-66
2021/09/03 06:13:55;;;;;;;24.77;16.47;;;;;;;;;;5076306;28;20451;-65
2021/09/03 06:16:23;;;;;;;22.57;16.63;;;;;;;;;;5075874;28;20501;-66
2021/09/03 06:18:50;;;;;;;22.40;15.60;;;;;;;;;;5075588;28;20847;-65
2021/09/03 06:21:18;;;;;;;21.90;16.20;;;;;;;;;;5075356;28;20467;-64
2021/09/03 06:23:45;;;;;;;19.13;15.40;;;;;;;;;;5075152;28;20451;-65
2021/09/03 06:26:14;;;;;;;18.70;16.43;;;;;;;;;;5075077;28;20500;-65
2021/09/03 06:28:41;;;;;;;19.97;17.70;;;;;;;;;;5074752;28;20517;-64
2021/09/03 06:31:09;;;;;;;25.33;17.83;;;;;;;;;;5073775;28;20474;-64
2021/09/03 06:33:36;;;;;;;24.20;16.53;;;;;;;;;;5074648;28;20542;-65
2021/09/03 06:36:04;;;;;;;21.30;17.20;;;;;;;;;;5077364;28;20443;-65
2021/09/03 06:38:31;;;;;;;17.90;15.97;;;;;;;;;;5084642;28;20489;-65
2021/09/03 06:40:59;;;;;;;18.00;16.10;;;;;;;;;;5081550;28;20464;-65
2021/09/03 06:43:28;;;;;;;19.53;17.43;;;;;;;;;;5075208;28;20963;-66
2021/09/03 06:45:55;;;;;;;20.07;16.17;;;;;;;;;;5075194;28;20447;-65
2021/09/03 06:48:24;;;;;;;19.60;17.57;;;;;;;;;;5076398;28;20475;-63
2021/09/03 06:50:51;;;;;;;20.07;17.23;;;;;;;;;;5075078;28;20467;-64
2021/09/03 06:53:18;;;;;;;20.40;17.53;;;;;;;;;;5074453;28;20537;-64
2021/09/03 06:55:46;;;;;;;19.30;16.80;;;;;;;;;;5073799;28;21009;-63
2021/09/03 06:58:13;;;;;;;25.93;19.63;;;;;;;;;;5074198;28;20493;-64
2021/09/03 07:00:42;;;;;;;21.33;17.80;;;;;;;;;;5073941;28;20970;-64
2021/09/03 07:03:09;;;;;;;20.53;18.33;;;;;;;;;;5074545;28;20885;-66
2021/09/03 07:05:36;;;;;;;24.93;19.80;;;;;;;;;;5073909;28;20995;-66
2021/09/03 07:08:03;;;;;;;22.03;19.57;;;;;;;;;;5073326;28;20487;-65
2021/09/03 07:10:31;;;;;;;21.47;19.20;;;;;;;;;;5073951;28;20443;-65
2021/09/03 07:12:58;;;;;;;22.73;18.83;;;;;;;;;;5073519;28;20446;-65
2021/09/03 07:15:25;;;;;;;20.07;17.97;;;;;;;;;;5073793;28;20504;-66
2021/09/03 07:17:54;;;;;;;22.40;18.80;;;;;;;;;;5073688;28;20992;-66
2021/09/03 07:20:21;;;;;;;23.80;19.20;;;;;;;;;;5073699;28;20447;-66
2021/09/03 07:22:51;;;;;;;23.87;19.63;;;;;;;;;;5073718;28;20474;-66
2021/09/03 07:25:18;;;;;;;22.90;19.33;;;;;;;;;;5073596;28;20542;-66
2021/09/03 07:27:46;;;;;;;21.40;18.70;;;;;;;;;;5073482;28;20932;-66
2021/09/03 07:30:13;;;;;;;23.80;20.37;;;;;;;;;;5074308;28;20447;-65
2021/09/03 07:32:43;;;;;;;22.50;19.97;;;;;;;;;;5074299;28;20435;-65
2021/09/03 07:35:12;;;;;;;26.95;20.20;;;;;;;;;;5081366;28;20437;-64
2021/09/03 07:37:40;;;;;;;24.10;20.50;;;;;;;;;;5088954;28;20207;-63
2021/09/03 07:40:08;;;;;;;25.57;20.87;;;;;;;;;;5083218;28;20943;-63
2021/09/03 07:42:35;;;;;;;25.20;18.30;;;;;;;;;;5061985;22;20989;-56
2021/09/03 07:45:03;;;;;;;20.77;18.17;;;;;;;;;;5034828;28;20445;-57
2021/09/03 07:47:31;;;;;;;22.83;17.27;;;;;;;;;;5033341;28;20481;-56
2021/09/03 07:50:01;;;;;;;19.77;17.03;;;;;;;;;;5033430;28;20477;-56
2021/09/03 07:52:29;;;;;;;19.50;16.23;;;;;;;;;;5033053;28;20499;-56
2021/09/03 07:54:56;;;;;;;19.90;16.30;;;;;;;;;;5033126;28;20452;-56
2021/09/03 07:57:24;;;;;;;23.47;16.67;;;;;;;;;;5033471;28;20444;-56
2021/09/03 07:59:51;;;;;;;18.17;16.17;;;;;;;;;;5033996;28;20507;-55
2021/09/03 08:02:18;;;;;;;17.00;14.93;;;;;;;;;;5033604;28;20473;-55
2021/09/03 08:04:46;;;;;;;16.73;13.80;;;;;;;;;;5033198;28;20468;-53
2021/09/03 08:07:13;;;;;;;19.07;15.93;;;;;;;;;;5033195;28;20804;-56
2021/09/03 08:09:41;;;;;;;19.03;15.77;;;;;;;;;;5032902;28;20542;-56
2021/09/03 08:12:09;;;;;;;17.73;15.07;;;;;;;;;;5032850;28;20476;-56
2021/09/03 08:14:36;;;;;;;19.47;15.13;;;;;;;;;;5032654;28;20445;-56
2021/09/03 08:17:04;;;;;;;18.40;16.40;;;;;;;;;;5033090;28;20445;-56
2021/09/03 08:19:31;;;;;;;19.20;16.27;;;;;;;;;;5032973;28;20440;-56
2021/09/03 08:21:58;;;;;;;19.13;16.77;;;;;;;;;;5032908;28;20461;-56
2021/09/03 08:24:25;;;;;;;19.63;16.53;;;;;;;;;;5033162;28;20448;-57
2021/09/03 08:26:54;;;;;;;24.80;17.70;;;;;;;;;;5032648;28;20857;-57
2021/09/03 08:29:21;;;;;;;22.47;16.27;;;;;;;;;;5033161;28;20892;-58
2021/09/03 08:31:48;;;;;;;18.63;16.77;;;;;;;;;;5033018;28;20495;-58
2021/09/03 08:34:16;;;;;;;19.97;17.10;;;;;;;;;;5032871;28;20467;-57
2021/09/03 08:36:44;;;;;;;19.60;17.17;;;;;;;;;;5032498;28;20459;-57
2021/09/03 08:39:11;;;;;;;19.77;17.67;;;;;;;;;;5033131;28;20797;-57
2021/09/03 08:41:39;;;;;;;21.00;17.67;;;;;;;;;;5032893;28;21023;-56
2021/09/03 08:44:08;;;;;;;19.97;17.40;;;;;;;;;;5033397;28;20507;-58
2021/09/03 08:46:36;;;;;;;21.97;17.30;;;;;;;;;;5032683;28;20448;-58
2021/09/03 08:49:04;;;;;;;20.70;17.97;;;;;;;;;;5032571;28;20488;-58
2021/09/03 08:51:31;;;;;;;19.43;17.33;;;;;;;;;;5033303;28;20472;-57
2021/09/03 08:53:58;;;;;;;17.87;16.13;;;;;;;;;;5033759;28;20940;-59
2021/09/03 08:56:25;;;;;;;20.37;17.13;;;;;;;;;;5036933;28;20984;-57
2021/09/03 08:58:53;;;;;;;21.30;16.70;;;;;;;;;;5035924;28;20453;-57
2021/09/03 09:01:21;;;;;;;21.27;15.97;;;;;;;;;;5036104;28;20468;-57
2021/09/03 09:03:49;;;;;;;20.83;16.37;;;;;;;;;;5036112;28;20449;-56
2021/09/03 09:06:20;;;;;;;19.97;15.07;;;;;;;;;;5036350;28;20940;-57
2021/09/03 09:08:55;;;;;;;20.47;15.63;;;;;;;;;;5036128;28;20488;-57
2021/09/03 09:11:22;;;;;;;19.53;14.80;;;;;;;;;;5036087;28;20551;-60
2021/09/03 09:13:49;;;;;;;20.57;13.53;;;;;;;;;;5036937;28;20495;-58
2021/09/03 09:16:17;;;;;;;14.90;13.30;;;;;;;;;;5035908;28;20453;-57
2021/09/03 09:18:47;;;;;;;17.33;15.13;;;;;;;;;;5035866;28;20498;-59
2021/09/03 09:21:16;;;;;;;17.83;13.40;;;;;;;;;;5035940;28;20829;-59
2021/09/03 09:23:45;;;;;;;17.70;14.27;;;;;;;;;;5035671;28;20455;-58
2021/09/03 09:26:12;;;;;;;17.17;13.50;;;;;;;;;;5035627;28;20456;-59
2021/09/03 09:28:40;;;;;;;15.43;13.27;;;;;;;;;;5035218;28;20473;-58
2021/09/03 09:31:08;;;;;;;17.07;13.20;;;;;;;;;;5035469;28;20543;-59
2021/09/03 09:33:35;;;;;;;17.00;14.70;;;;;;;;;;5035849;28;20449;-59
2021/09/03 09:36:05;;;;;;;16.13;12.70;;;;;;;;;;5035610;28;20495;-59
2021/09/03 09:38:33;;;;;;;16.20;13.30;;;;;;;;;;5035393;28;20441;-59
2021/09/03 09:41:01;;;;;;;17.33;13.77;;;;;;;;;;5034986;28;20453;-59
2021/09/03 09:43:33;;;;;;;16.33;11.30;;;;;;;;;;5035214;28;20433;-59
2021/09/03 09:46:15;;;;;;;19.70;14.10;;;;;;;;;;5035387;28;20449;-60
2021/09/03 09:49:01;;;;;;;19.10;12.93;;;;;;;;;;5032771;28;20480;-60
2021/09/03 09:51:31;;;;;;;20.03;15.27;;;;;;;;;;5034609;28;20480;-58
2021/09/03 09:53:59;;;;;;;17.20;13.40;;;;;;;;;;5035182;28;20824;-58
2021/09/03 09:56:28;;;;;;;16.33;13.90;;;;;;;;;;5034637;28;20517;-59
2021/09/03 09:58:56;;;;;;;16.70;14.43;;;;;;;;;;5035442;28;20583;-58
2021/09/03 10:01:23;;;;;;;19.97;14.50;;;;;;;;;;5034984;28;20518;-59
2021/09/03 10:03:52;;;;;;;21.67;14.07;;;;;;;;;;5040629;28;20528;-59
2021/09/03 10:06:19;;;;;;;16.27;12.73;;;;;;;;;;5034925;28;20449;-59
2021/09/03 10:08:49;;;;;;;15.90;13.67;;;;;;;;;;5035960;28;20895;-59
2021/09/03 10:11:17;;;;;;;18.50;14.27;;;;;;;;;;5034740;28;21003;-59
2021/09/03 10:13:44;;;;;;;18.33;13.50;;;;;;;;;;5034761;28;20496;-59
2021/09/03 10:16:12;;;;;;;12.67;11.30;;;;;;;;;;5034748;28;20528;-59
2021/09/03 10:18:40;;;;;;;15.03;11.10;;;;;;;;;;5034810;28;20548;-58
2021/09/03 10:21:08;;;;;;;16.37;13.07;;;;;;;;;;5035035;28;20472;-59
2021/09/03 10:23:53;;;;;;;13.53;12.10;;;;;;;;;;5044524;28;20440;-59
2021/09/03 10:26:22;;;;;;;15.37;10.70;;;;;;;;;;5054880;28;20492;-59
2021/09/03 10:28:50;;;;;;;14.50;11.63;;;;;;;;;;5048842;28;20490;-58
2021/09/03 10:31:21;;;;;;;16.27;12.00;;;;;;;;;;5035983;28;20467;-59
2021/09/03 10:33:48;;;;;;;13.83;10.70;;;;;;;;;;5034534;28;20539;-59
2021/09/03 10:36:35;;;;;;;12.30;11.00;;;;;;;;;;5033900;28;20823;-59
2021/09/03 10:39:17;;;;;;;13.00;11.60;;;;;;;;;;5034010;28;20455;-56
2021/09/03 10:41:51;;;;;;;14.23;11.43;;;;;;;;;;5033534;28;20476;-58
2021/09/03 10:44:19;;;;;;;18.43;13.03;;;;;;;;;;5034459;28;20512;-58
2021/09/03 10:46:46;;;;;;;13.20;11.83;;;;;;;;;;5034012;28;20441;-58
2021/09/03 10:49:13;;;;;;;12.03;10.73;;;;;;;;;;5033749;28;21000;-58
2021/09/03 10:51:40;;;;;;;15.83;13.00;;;;;;;;;;5033676;28;20894;-57
2021/09/03 10:54:17;;;;;;;18.00;12.23;;;;;;;;;;5033987;28;20947;-58
2021/09/03 10:56:58;;;;;;;17.73;12.40;;;;;;;;;;5033995;28;20445;-59
2021/09/03 10:59:25;;;;;;;14.93;11.67;;;;;;;;;;5033900;28;20497;-59
2021/09/03 11:01:56;;;;;;;14.00;11.83;;;;;;;;;;5034072;28;20557;-59
2021/09/03 11:04:24;;;;;;;16.30;12.23;;;;;;;;;;5033578;28;20516;-59
2021/09/03 11:07:02;;;;;;;14.37;11.90;;;;;;;;;;5033396;28;20530;-59
2021/09/03 11:09:30;;;;;;;15.30;10.37;;;;;;;;;;5032929;28;20542;-58
2021/09/03 11:12:01;;;;;;;16.20;11.30;;;;;;;;;;5033664;28;20480;-59
2021/09/03 11:14:29;;;;;;;17.70;13.40;;;;;;;;;;5034077;28;20482;-58
2021/09/03 11:16:58;;;;;;;14.10;11.33;;;;;;;;;;5032988;28;20439;-57
2021/09/03 11:19:28;;;;;;;15.00;12.03;;;;;;;;;;5033193;28;20446;-58
2021/09/03 11:21:56;;;;;;;18.40;12.23;;;;;;;;;;5032931;28;20487;-59
2021/09/03 11:24:24;;;;;;;13.50;10.37;;;;;;;;;;5033304;28;20482;-59
2021/09/03 11:26:52;;;;;;;11.03;9.57;;;;;;;;;;5033403;28;20509;-58
2021/09/03 11:29:23;;;;;;;16.07;11.40;;;;;;;;;;5033177;28;20478;-59
2021/09/03 11:31:53;;;;;;;11.43;9.20;;;;;;;;;;5033125;28;20948;-59
2021/09/03 11:34:35;;;;;;;10.40;8.63;;;;;;;;;;5033403;28;20508;-58
2021/09/03 11:37:03;;;;;;;11.37;8.73;;;;;;;;;;5032708;28;20437;-57
2021/09/03 11:39:33;;;;;;;14.70;10.10;;;;;;;;;;5033362;28;20442;-57
2021/09/03 11:42:00;;;;;;;19.10;10.50;;;;;;;;;;5032821;28;20494;-58
2021/09/03 11:44:29;;;;;;;11.20;8.87;;;;;;;;;;5033375;28;20446;-58
2021/09/03 11:46:57;;;;;;;10.77;9.20;;;;;;;;;;5032844;28;20444;-58
2021/09/03 11:49:24;;;;;;;11.10;8.80;;;;;;;;;;5032994;28;20481;-59
2021/09/03 11:52:03;;;;;;;12.30;9.57;;;;;;;;;;5032892;28;20519;-58
2021/09/03 11:54:30;;;;;;;10.00;7.83;;;;;;;;;;5033316;28;20810;-59
2021/09/03 11:56:58;;;;;;;8.70;6.50;;;;;;;;;;5033256;28;20543;-59
2021/09/03 11:59:25;;;;;;;8.87;7.57;;;;;;;;;;5033463;28;20448;-58
2021/09/03 12:02:03;;;;;;;8.97;6.43;;;;;;;;;;5033283;28;20473;-59
2021/09/03 12:04:31;;;;;;;9.00;8.10;;;;;;;;;;5033555;28;20462;-58
2021/09/03 12:06:58;;;;;;;8.73;7.77;;;;;;;;;;5032710;28;20449;-58
2021/09/03 12:09:33;;;;;;;8.33;6.90;;;;;;;;;;5033038;28;20477;-59
2021/09/03 12:12:01;;;;;;;17.70;8.20;;;;;;;;;;5032844;28;20479;-59
2021/09/03 12:14:28;;;;;;;11.53;10.20;;;;;;;;;;5032573;28;20442;-58
2021/09/03 12:16:55;;;;;;;9.70;8.63;;;;;;;;;;5032656;28;20455;-58
2021/09/03 12:19:26;;;;;;;9.93;8.93;;;;;;;;;;5032698;28;20498;-59
2021/09/03 12:21:53;;;;;;;10.37;9.47;;;;;;;;;;5032745;28;20471;-59
2021/09/03 12:24:22;;;;;;;13.10;9.20;;;;;;;;;;5032495;28;20445;-59
2021/09/03 12:26:51;;;;;;;8.37;7.00;;;;;;;;;;5033197;28;20504;-59
2021/09/03 12:29:19;;;;;;;9.90;8.30;;;;;;;;;;5035118;28;20864;-59
2021/09/03 12:31:51;;;;;;;13.37;8.60;;;;;;;;;;5036391;28;21050;-57
2021/09/03 12:34:18;;;;;;;14.33;9.30;;;;;;;;;;5036584;28;20439;-57
2021/09/03 12:36:47;;;;;;;12.50;9.13;;;;;;;;;;5036391;28;20452;-57
2021/09/03 12:39:15;;;;;;;11.97;9.73;;;;;;;;;;5036659;28;20456;-58
2021/09/03 12:41:43;;;;;;;11.53;8.83;;;;;;;;;;5036260;28;20482;-57
2021/09/03 12:44:11;;;;;;;11.53;8.57;;;;;;;;;;5036232;28;20528;-58
2021/09/03 12:46:40;;;;;;;10.37;8.90;;;;;;;;;;5036456;28;20870;-59
2021/09/03 12:49:17;;;;;;;10.43;9.00;;;;;;;;;;5035944;28;21075;-58
2021/09/03 12:51:45;;;;;;;9.17;8.27;;;;;;;;;;5036115;28;20902;-57
2021/09/03 12:54:14;;;;;;;11.80;8.30;;;;;;;;;;5036180;28;20452;-59
2021/09/03 12:56:43;;;;;;;10.93;8.97;;;;;;;;;;5035898;28;20448;-59
2021/09/03 12:59:10;;;;;;;15.87;11.13;;;;;;;;;;5036224;28;20448;-58
2021/09/03 13:01:38;;;;;;;14.27;11.03;;;;;;;;;;5035831;28;20467;-58
2021/09/03 13:04:14;;;;;;;14.93;11.27;;;;;;;;;;5036194;28;20512;-59
2021/09/03 13:06:45;;;;;;;13.93;10.43;;;;;;;;;;5036009;28;20436;-58
2021/09/03 13:09:13;;;;;;;15.40;12.47;;;;;;;;;;5036172;28;20530;-59
2021/09/03 13:11:41;;;;;;;12.60;9.83;;;;;;;;;;5035637;28;20899;-58
2021/09/03 13:14:08;;;;;;;14.00;10.73;;;;;;;;;;5035518;28;20452;-59
2021/09/03 13:16:37;;;;;;;15.57;10.40;;;;;;;;;;5035755;28;20505;-58
2021/09/03 13:19:04;;;;;;;13.37;10.00;;;;;;;;;;5036026;28;20451;-59
2021/09/03 13:21:32;;;;;;;11.67;7.97;;;;;;;;;;5035843;28;20525;-60
2021/09/03 13:23:59;;;;;;;10.20;9.20;;;;;;;;;;5041962;28;20445;-58
2021/09/03 13:26:28;;;;;;;12.60;9.70;;;;;;;;;;5035625;28;20973;-58
2021/09/03 13:28:55;;;;;;;12.33;9.20;;;;;;;;;;5036402;28;20517;-58
2021/09/03 13:31:23;;;;;;;10.67;8.80;;;;;;;;;;5035295;28;20550;-58
2021/09/03 13:33:51;;;;;;;13.27;9.30;;;;;;;;;;5035410;28;20862;-58
2021/09/03 13:36:18;;;;;;;9.73;8.73;;;;;;;;;;5035816;28;20923;-58
2021/09/03 13:38:47;;;;;;;10.63;9.40;;;;;;;;;;5035823;28;20457;-58
2021/09/03 13:43:50;;;;;;;9.97;8.90;;;;;;;;;;5052353;22;20483;-62
2021/09/03 13:46:18;;;;;;;13.07;9.70;;;;;;;;;;5035120;28;20525;-61
2021/09/03 13:48:45;;;;;;;10.50;8.80;;;;;;;;;;5035249;28;20454;-63
2021/09/03 13:51:13;;;;;;;10.43;8.87;;;;;;;;;;5035083;28;20480;-63
2021/09/03 13:53:40;;;;;;;11.40;9.67;;;;;;;;;;5035715;28;20466;-63
2021/09/03 13:56:07;;;;;;;11.77;8.77;;;;;;;;;;5036061;28;20510;-61
2021/09/03 13:58:35;;;;;;;10.70;9.70;;;;;;;;;;5035459;28;20452;-63
2021/09/03 14:01:03;;;;;;;10.83;9.73;;;;;;;;;;5034907;28;20445;-62
2021/09/03 14:03:31;;;;;;;16.03;10.17;;;;;;;;;;5035145;28;20525;-64
2021/09/03 14:05:58;;;;;;;11.30;10.20;;;;;;;;;;5034742;28;20551;-63
2021/09/03 14:08:25;;;;;;;12.63;10.70;;;;;;;;;;5035079;28;20449;-64
2021/09/03 14:10:53;;;;;;;11.10;10.00;;;;;;;;;;5034926;28;20477;-64
2021/09/03 14:13:20;;;;;;;11.50;9.40;;;;;;;;;;5034925;28;21050;-63
2021/09/03 14:15:48;;;;;;;11.17;9.23;;;;;;;;;;5035270;28;20443;-63
2021/09/03 14:18:17;;;;;;;12.27;8.80;;;;;;;;;;5035561;28;20481;-63
2021/09/03 14:20:44;;;;;;;12.27;9.80;;;;;;;;;;5035374;28;20453;-63
2021/09/03 14:23:12;;;;;;;10.50;9.50;;;;;;;;;;5034731;28;20992;-62
2021/09/03 14:25:40;;;;;;;10.70;9.33;;;;;;;;;;5034920;28;20543;-63
2021/09/03 14:28:07;;;;;;;13.20;9.60;;;;;;;;;;5035064;28;20456;-63
2021/09/03 14:30:35;;;;;;;10.73;8.60;;;;;;;;;;5034397;28;20484;-63